sensor_id;sensor_type;location;lat;lon;timestamp;pressure;altitude;pressure_sealevel;temperature;humidity
5780;BME280;2916;49.798;10.022;2023-07-22T00:02:00;148173.78;;;15.82;88.68
5780;BME280;2916;49.798;10.022;2023-07-22T00:04:27;148173.78;;;15.82;87.65
5780;BME280;2916;49.798;10.022;2023-07-22T00:06:54;148188.75;;;15.88;87.59
5780;BME280;2916;49.798;10.022;2023-07-22T00:09:22;148157.59;;;15.75;88.10
5780;BME280;2916;49.798;10.022;2023-07-22T00:11:50;148176.28;;;15.83;88.14
5780;BME280;2916;49.798;10.022;2023-07-22T00:14:18;148178.78;;;15.84;87.51
5780;BME280;2916;49.798;10.022;2023-07-22T00:16:46;148168.78;;;15.80;87.59
5780;BME280;2916;49.798;10.022;2023-07-22T00:19:13;148151.38;;;15.73;88.06
5780;BME280;2916;49.798;10.022;2023-07-22T00:21:41;148158.81;;;15.76;87.82
5780;BME280;2916;49.798;10.022;2023-07-22T00:24:08;148151.38;;;15.73;87.89
5780;BME280;2916;49.798;10.022;2023-07-22T00:26:36;148138.91;;;15.67;88.56
5780;BME280;2916;49.798;10.022;2023-07-22T00:29:03;148116.47;;;15.58;88.78
5780;BME280;2916;49.798;10.022;2023-07-22T00:31:33;147932.22;;;14.83;89.21
5780;BME280;2916;49.798;10.022;2023-07-22T00:34:00;148108.97;;;15.55;89.39
5780;BME280;2916;49.798;10.022;2023-07-22T00:36:27;148104.03;;;15.53;89.31
5780;BME280;2916;49.798;10.022;2023-07-22T00:38:55;148104.03;;;15.53;89.15
5780;BME280;2916;49.798;10.022;2023-07-22T00:41:22;148118.94;;;15.59;89.11
5780;BME280;2916;49.798;10.022;2023-07-22T00:43:49;147994.44;;;15.08;87.77
5780;BME280;2916;49.798;10.022;2023-07-22T00:46:17;148110.22;;;15.56;88.72
5780;BME280;2916;49.798;10.022;2023-07-22T00:48:47;148102.78;;;15.53;88.85
5780;BME280;2916;49.798;10.022;2023-07-22T00:51:15;148091.53;;;15.48;88.70
5780;BME280;2916;49.798;10.022;2023-07-22T00:53:42;148097.78;;;15.51;88.47
5780;BME280;2916;49.798;10.022;2023-07-22T00:56:10;148113.97;;;15.57;89.13
5780;BME280;2916;49.798;10.022;2023-07-22T00:58:37;148102.78;;;15.53;88.56
5780;BME280;2916;49.798;10.022;2023-07-22T01:01:04;148061.66;;;15.36;88.14
5780;BME280;2916;49.798;10.022;2023-07-22T01:03:32;148110.22;;;15.56;87.39
5780;BME280;2916;49.798;10.022;2023-07-22T01:06:00;148122.69;;;15.61;86.85
5780;BME280;2916;49.798;10.022;2023-07-22T01:08:28;148133.94;;;15.65;86.45
5780;BME280;2916;49.798;10.022;2023-07-22T01:10:55;148131.41;;;15.64;86.37
5780;BME280;2916;49.798;10.022;2023-07-22T01:13:22;148135.19;;;15.66;86.76
5780;BME280;2916;49.798;10.022;2023-07-22T01:15:50;148094.06;;;15.49;85.44
5780;BME280;2916;49.798;10.022;2023-07-22T01:18:17;148146.38;;;15.70;85.94
5780;BME280;2916;49.798;10.022;2023-07-22T01:20:46;148138.91;;;15.67;87.06
5780;BME280;2916;49.798;10.022;2023-07-22T01:23:15;148138.91;;;15.67;86.54
5780;BME280;2916;49.798;10.022;2023-07-22T01:25:43;148089.06;;;15.47;86.54
5780;BME280;2916;49.798;10.022;2023-07-22T01:28:11;148148.88;;;15.71;86.04
5780;BME280;2916;49.798;10.022;2023-07-22T01:30:38;148143.91;;;15.69;87.46
5780;BME280;2916;49.798;10.022;2023-07-22T01:33:05;148128.91;;;15.63;86.52
5780;BME280;2916;49.798;10.022;2023-07-22T01:35:32;148111.50;;;15.56;87.85
5780;BME280;2916;49.798;10.022;2023-07-22T01:38:00;148126.41;;;15.62;87.81
5780;BME280;2916;49.798;10.022;2023-07-22T01:40:28;148081.56;;;15.44;87.31
5780;BME280;2916;49.798;10.022;2023-07-22T01:42:56;148070.38;;;15.39;87.12
5780;BME280;2916;49.798;10.022;2023-07-22T01:45:23;148123.94;;;15.61;87.54
5780;BME280;2916;49.798;10.022;2023-07-22T01:47:51;148064.19;;;15.37;88.05
5780;BME280;2916;49.798;10.022;2023-07-22T01:50:18;148143.91;;;15.69;87.45
5780;BME280;2916;49.798;10.022;2023-07-22T01:52:45;148137.66;;;15.67;87.49
5780;BME280;2916;49.798;10.022;2023-07-22T01:55:13;148107.75;;;15.55;86.96
5780;BME280;2916;49.798;10.022;2023-07-22T01:57:42;148123.94;;;15.61;86.71
5780;BME280;2916;49.798;10.022;2023-07-22T02:00:10;148151.38;;;15.73;86.56
5780;BME280;2916;49.798;10.022;2023-07-22T02:02:38;148116.47;;;15.58;86.40
5780;BME280;2916;49.798;10.022;2023-07-22T02:05:06;148099.03;;;15.51;86.76
5780;BME280;2916;49.798;10.022;2023-07-22T02:07:34;148131.41;;;15.64;86.59
5780;BME280;2916;49.798;10.022;2023-07-22T02:10:01;148138.91;;;15.67;87.14
5780;BME280;2916;49.798;10.022;2023-07-22T02:12:29;148131.41;;;15.64;86.70
5780;BME280;2916;49.798;10.022;2023-07-22T02:14:57;148133.94;;;15.65;86.95
5780;BME280;2916;49.798;10.022;2023-07-22T02:17:25;148121.47;;;15.60;88.41
5780;BME280;2916;49.798;10.022;2023-07-22T02:19:52;148127.66;;;15.63;87.04
5780;BME280;2916;49.798;10.022;2023-07-22T02:22:19;148115.22;;;15.58;89.14
5780;BME280;2916;49.798;10.022;2023-07-22T02:24:46;148116.47;;;15.58;87.01
5780;BME280;2916;49.798;10.022;2023-07-22T02:27:14;148118.94;;;15.59;87.35
5780;BME280;2916;49.798;10.022;2023-07-22T02:29:41;148113.97;;;15.57;87.37
5780;BME280;2916;49.798;10.022;2023-07-22T02:32:10;148070.38;;;15.39;88.86
5780;BME280;2916;49.798;10.022;2023-07-22T02:34:37;148102.78;;;15.53;88.57
5780;BME280;2916;49.798;10.022;2023-07-22T02:37:04;148101.50;;;15.52;87.38
5780;BME280;2916;49.798;10.022;2023-07-22T02:39:32;148086.59;;;15.46;87.97
5780;BME280;2916;49.798;10.022;2023-07-22T02:41:59;148084.09;;;15.45;86.89
5780;BME280;2916;49.798;10.022;2023-07-22T02:44:26;148074.16;;;15.41;86.90
5780;BME280;2916;49.798;10.022;2023-07-22T02:46:53;148076.63;;;15.42;86.96
5780;BME280;2916;49.798;10.022;2023-07-22T02:49:22;148071.63;;;15.40;87.01
5780;BME280;2916;49.798;10.022;2023-07-22T02:51:49;148009.41;;;15.14;86.10
5780;BME280;2916;49.798;10.022;2023-07-22T02:54:17;148081.56;;;15.44;86.00
5780;BME280;2916;49.798;10.022;2023-07-22T02:56:44;148086.59;;;15.46;86.32
5780;BME280;2916;49.798;10.022;2023-07-22T02:59:11;148084.09;;;15.45;87.50
5780;BME280;2916;49.798;10.022;2023-07-22T03:01:38;148079.09;;;15.43;86.60
5780;BME280;2916;49.798;10.022;2023-07-22T03:04:05;148072.84;;;15.40;86.89
5780;BME280;2916;49.798;10.022;2023-07-22T03:06:34;147959.63;;;14.94;86.70
5780;BME280;2916;49.798;10.022;2023-07-22T03:09:01;148051.72;;;15.32;87.80
5780;BME280;2916;49.798;10.022;2023-07-22T03:11:30;148046.75;;;15.30;87.12
5780;BME280;2916;49.798;10.022;2023-07-22T03:13:57;148034.25;;;15.25;86.87
5780;BME280;2916;49.798;10.022;2023-07-22T03:16:25;148040.50;;;15.27;87.35
5780;BME280;2916;49.798;10.022;2023-07-22T03:18:52;148024.31;;;15.20;87.18
5780;BME280;2916;49.798;10.022;2023-07-22T03:21:19;148006.91;;;15.13;87.28
5780;BME280;2916;49.798;10.022;2023-07-22T03:23:48;148009.41;;;15.14;87.69
5780;BME280;2916;49.798;10.022;2023-07-22T03:26:16;148000.69;;;15.11;87.96
5780;BME280;2916;49.798;10.022;2023-07-22T03:28:43;148005.63;;;15.13;85.42
5780;BME280;2916;49.798;10.022;2023-07-22T03:31:10;148001.91;;;15.11;86.23
5780;BME280;2916;49.798;10.022;2023-07-22T03:33:38;147987.00;;;15.05;85.32
5780;BME280;2916;49.798;10.022;2023-07-22T03:36:07;147949.66;;;14.90;85.22
5780;BME280;2916;49.798;10.022;2023-07-22T03:38:34;147942.19;;;14.87;85.02
5780;BME280;2916;49.798;10.022;2023-07-22T03:41:02;147825.19;;;14.39;83.92
5780;BME280;2916;49.798;10.022;2023-07-22T03:43:29;147913.56;;;14.75;87.52
5780;BME280;2916;49.798;10.022;2023-07-22T03:45:57;147898.59;;;14.69;86.42
5780;BME280;2916;49.798;10.022;2023-07-22T03:48:24;147883.69;;;14.63;85.61
5780;BME280;2916;49.798;10.022;2023-07-22T03:50:51;147825.19;;;14.39;84.73
5780;BME280;2916;49.798;10.022;2023-07-22T03:53:18;147870.00;;;14.57;84.85
5780;BME280;2916;49.798;10.022;2023-07-22T03:55:45;147875.00;;;14.59;85.01
5780;BME280;2916;49.798;10.022;2023-07-22T03:58:14;147857.56;;;14.52;88.14
5780;BME280;2916;49.798;10.022;2023-07-22T04:00:41;147852.56;;;14.50;87.36
5780;BME280;2916;49.798;10.022;2023-07-22T04:03:09;147840.09;;;14.45;87.76
5780;BME280;2916;49.798;10.022;2023-07-22T04:05:36;147842.56;;;14.46;87.29
5780;BME280;2916;49.798;10.022;2023-07-22T04:08:03;147799.03;;;14.28;88.90
5780;BME280;2916;49.798;10.022;2023-07-22T04:10:31;147830.13;;;14.41;89.75
5780;BME280;2916;49.798;10.022;2023-07-22T04:12:58;147762.94;;;14.13;89.82
5780;BME280;2916;49.798;10.022;2023-07-22T04:15:27;147821.41;;;14.37;89.62
5780;BME280;2916;49.798;10.022;2023-07-22T04:17:54;147832.59;;;14.42;89.50
5780;BME280;2916;49.798;10.022;2023-07-22T04:20:21;147857.56;;;14.52;90.17
5780;BME280;2916;49.798;10.022;2023-07-22T04:22:50;147907.31;;;14.72;89.16
5780;BME280;2916;49.798;10.022;2023-07-22T04:25:17;147914.81;;;14.76;89.09
5780;BME280;2916;49.798;10.022;2023-07-22T04:27:44;147954.63;;;14.92;88.78
5780;BME280;2916;49.798;10.022;2023-07-22T04:30:11;148021.84;;;15.19;87.69
5780;BME280;2916;49.798;10.022;2023-07-22T04:32:47;148096.53;;;15.50;85.75
5780;BME280;2916;49.798;10.022;2023-07-22T04:35:15;148121.47;;;15.60;86.59
5780;BME280;2916;49.798;10.022;2023-07-22T04:37:43;148162.59;;;15.77;86.60
5780;BME280;2916;49.798;10.022;2023-07-22T04:40:12;148203.69;;;15.94;86.21
5780;BME280;2916;49.798;10.022;2023-07-22T04:42:42;148226.06;;;16.03;85.76
5780;BME280;2916;49.798;10.022;2023-07-22T04:45:11;148218.63;;;16.00;85.66
5780;BME280;2916;49.798;10.022;2023-07-22T04:47:39;148216.13;;;15.99;84.22
5780;BME280;2916;49.798;10.022;2023-07-22T04:50:09;148223.59;;;16.02;83.89
5780;BME280;2916;49.798;10.022;2023-07-22T04:52:37;148243.53;;;16.10;84.31
5780;BME280;2916;49.798;10.022;2023-07-22T04:55:05;148265.97;;;16.19;83.11
5780;BME280;2916;49.798;10.022;2023-07-22T04:57:35;148273.41;;;16.23;82.59
5780;BME280;2916;49.798;10.022;2023-07-22T05:00:02;148272.19;;;16.22;82.50
5780;BME280;2916;49.798;10.022;2023-07-22T05:02:30;148260.97;;;16.17;83.10
5780;BME280;2916;49.798;10.022;2023-07-22T05:04:58;148305.84;;;16.36;82.42
5780;BME280;2916;49.798;10.022;2023-07-22T05:07:26;148288.38;;;16.29;81.56
5780;BME280;2916;49.798;10.022;2023-07-22T05:09:53;148257.25;;;16.16;82.01
5780;BME280;2916;49.798;10.022;2023-07-22T05:12:21;148277.19;;;16.24;81.70
5780;BME280;2916;49.798;10.022;2023-07-22T05:14:49;148295.88;;;16.32;81.36
5780;BME280;2916;49.798;10.022;2023-07-22T05:17:16;148221.13;;;16.01;83.25
5780;BME280;2916;49.798;10.022;2023-07-22T05:19:43;148264.69;;;16.19;83.44
5780;BME280;2916;49.798;10.022;2023-07-22T05:22:13;148268.47;;;16.20;83.02
5780;BME280;2916;49.798;10.022;2023-07-22T05:24:42;148302.06;;;16.34;82.01
5780;BME280;2916;49.798;10.022;2023-07-22T05:27:09;148288.38;;;16.29;81.52
5780;BME280;2916;49.798;10.022;2023-07-22T05:29:36;148309.56;;;16.37;80.28
5780;BME280;2916;49.798;10.022;2023-07-22T05:32:04;148305.84;;;16.36;79.30
5780;BME280;2916;49.798;10.022;2023-07-22T05:34:32;148340.69;;;16.50;79.98
5780;BME280;2916;49.798;10.022;2023-07-22T05:36:59;148355.66;;;16.56;77.66
5780;BME280;2916;49.798;10.022;2023-07-22T05:39:26;148378.06;;;16.65;79.15
5780;BME280;2916;49.798;10.022;2023-07-22T05:41:55;148363.13;;;16.59;76.99
5780;BME280;2916;49.798;10.022;2023-07-22T05:44:22;148409.31;;;16.78;77.38
5780;BME280;2916;49.798;10.022;2023-07-22T05:46:49;148423.00;;;16.84;77.44
5780;BME280;2916;49.798;10.022;2023-07-22T05:49:16;148404.28;;;16.76;78.32
5780;BME280;2916;49.798;10.022;2023-07-22T05:51:46;148432.97;;;16.88;77.93
5780;BME280;2916;49.798;10.022;2023-07-22T05:54:13;148440.44;;;16.91;78.49
5780;BME280;2916;49.798;10.022;2023-07-22T05:56:40;148396.81;;;16.73;78.27
5780;BME280;2916;49.798;10.022;2023-07-22T05:59:09;148380.59;;;16.66;77.36
5780;BME280;2916;49.798;10.022;2023-07-22T06:01:37;148425.47;;;16.85;77.14
5780;BME280;2916;49.798;10.022;2023-07-22T06:04:05;148445.41;;;16.93;75.64
5780;BME280;2916;49.798;10.022;2023-07-22T06:06:32;148486.56;;;17.10;77.15
5780;BME280;2916;49.798;10.022;2023-07-22T06:09:00;148497.78;;;17.14;76.09
5780;BME280;2916;49.798;10.022;2023-07-22T06:11:27;148472.81;;;17.04;76.12
5780;BME280;2916;49.798;10.022;2023-07-22T06:13:55;148470.34;;;17.03;75.19
5780;BME280;2916;49.798;10.022;2023-07-22T06:16:23;148430.47;;;16.87;75.68
5780;BME280;2916;49.798;10.022;2023-07-22T06:18:50;148464.09;;;17.01;76.05
5780;BME280;2916;49.798;10.022;2023-07-22T06:21:18;148446.66;;;16.93;73.85
5780;BME280;2916;49.798;10.022;2023-07-22T06:23:45;148502.75;;;17.16;74.26
5780;BME280;2916;49.798;10.022;2023-07-22T06:26:12;148417.97;;;16.82;75.01
5780;BME280;2916;49.798;10.022;2023-07-22T06:28:39;148479.06;;;17.07;72.80
5780;BME280;2916;49.798;10.022;2023-07-22T06:31:07;148461.63;;;17.00;72.44
5780;BME280;2916;49.798;10.022;2023-07-22T06:33:35;148486.56;;;17.10;73.73
5780;BME280;2916;49.798;10.022;2023-07-22T06:36:03;148487.81;;;17.10;73.48
5780;BME280;2916;49.798;10.022;2023-07-22T06:38:30;148505.28;;;17.17;72.54
5780;BME280;2916;49.798;10.022;2023-07-22T06:40:58;148445.41;;;16.93;73.76
5780;BME280;2916;49.798;10.022;2023-07-22T06:43:25;148530.16;;;17.28;74.24
5780;BME280;2916;49.798;10.022;2023-07-22T06:45:52;148582.56;;;17.49;nan
5780;BME280;2916;49.798;10.022;2023-07-22T06:48:19;148541.38;;;17.32;72.83
5780;BME280;2916;49.798;10.022;2023-07-22T06:50:51;148627.41;;;17.67;72.67
5780;BME280;2916;49.798;10.022;2023-07-22T06:53:19;148572.59;;;17.45;73.49
5780;BME280;2916;49.798;10.022;2023-07-22T06:55:49;148585.03;;;17.50;73.30
5780;BME280;2916;49.798;10.022;2023-07-22T06:58:17;148619.97;;;17.64;73.17
5780;BME280;2916;49.798;10.022;2023-07-22T07:00:44;148667.34;;;17.84;72.26
5780;BME280;2916;49.798;10.022;2023-07-22T07:03:12;148672.34;;;17.86;71.58
5780;BME280;2916;49.798;10.022;2023-07-22T07:05:39;148647.41;;;17.76;72.00
5780;BME280;2916;49.798;10.022;2023-07-22T07:08:09;148664.84;;;17.83;72.14
5780;BME280;2916;49.798;10.022;2023-07-22T07:10:38;148687.34;;;17.92;70.31
5780;BME280;2916;49.798;10.022;2023-07-22T07:13:06;148684.81;;;17.91;69.37
5780;BME280;2916;49.798;10.022;2023-07-22T07:15:33;148740.94;;;18.14;69.43
5780;BME280;2916;49.798;10.022;2023-07-22T07:18:00;148949.34;;;18.99;68.26
5780;BME280;2916;49.798;10.022;2023-07-22T07:20:27;149036.69;;;19.35;67.02
5780;BME280;2916;49.798;10.022;2023-07-22T07:22:54;149181.53;;;19.94;64.65
5780;BME280;2916;49.798;10.022;2023-07-22T07:25:23;149219.00;;;20.09;63.59
5780;BME280;2916;49.798;10.022;2023-07-22T07:27:50;149261.44;;;20.27;63.85
5780;BME280;2916;49.798;10.022;2023-07-22T07:30:17;149311.41;;;20.47;62.61
5780;BME280;2916;49.798;10.022;2023-07-22T07:32:44;149408.91;;;20.87;62.94
5780;BME280;2916;49.798;10.022;2023-07-22T07:35:11;149601.41;;;21.66;61.83
5780;BME280;2916;49.798;10.022;2023-07-22T07:37:39;149366.41;;;20.70;61.62
5780;BME280;2916;49.798;10.022;2023-07-22T07:40:10;149361.44;;;20.68;61.56
5780;BME280;2916;49.798;10.022;2023-07-22T07:42:45;149477.63;;;21.15;60.61
5780;BME280;2916;49.798;10.022;2023-07-22T07:45:38;149643.88;;;21.83;58.86
5780;BME280;2916;49.798;10.022;2023-07-22T07:48:51;149563.91;;;21.50;57.90
5780;BME280;2916;49.798;10.022;2023-07-22T07:51:35;149556.38;;;21.47;57.21
5780;BME280;2916;49.798;10.022;2023-07-22T07:54:03;149428.91;;;20.95;57.88
5780;BME280;2916;49.798;10.022;2023-07-22T07:56:32;149437.66;;;20.99;58.59
5780;BME280;2916;49.798;10.022;2023-07-22T07:59:01;149535.16;;;21.39;57.71
5780;BME280;2916;49.798;10.022;2023-07-22T08:01:38;149501.34;;;21.25;57.37
5780;BME280;2916;49.798;10.022;2023-07-22T08:04:09;149743.91;;;22.24;55.48
5780;BME280;2916;49.798;10.022;2023-07-22T08:06:36;149731.44;;;22.19;55.45
5780;BME280;2916;49.798;10.022;2023-07-22T08:09:04;149618.84;;;21.73;56.05
5780;BME280;2916;49.798;10.022;2023-07-22T08:11:32;149840.19;;;22.63;53.49
5780;BME280;2916;49.798;10.022;2023-07-22T08:14:00;149961.59;;;23.13;53.31
5780;BME280;2916;49.798;10.022;2023-07-22T08:16:28;150070.41;;;23.57;51.77
5780;BME280;2916;49.798;10.022;2023-07-22T08:18:55;149915.28;;;22.94;53.47
5780;BME280;2916;49.798;10.022;2023-07-22T08:21:22;149782.66;;;22.40;54.95
5780;BME280;2916;49.798;10.022;2023-07-22T08:23:49;149660.13;;;21.90;55.34
5780;BME280;2916;49.798;10.022;2023-07-22T08:26:16;149523.91;;;21.34;57.67
5780;BME280;2916;49.798;10.022;2023-07-22T08:28:46;149656.34;;;21.88;57.13
5780;BME280;2916;49.798;10.022;2023-07-22T08:31:15;149621.38;;;21.74;57.39
5780;BME280;2916;49.798;10.022;2023-07-22T08:33:42;149573.91;;;21.54;57.08
5780;BME280;2916;49.798;10.022;2023-07-22T08:36:10;149542.63;;;21.42;56.35
5780;BME280;2916;49.798;10.022;2023-07-22T08:38:38;149567.63;;;21.52;56.71
5780;BME280;2916;49.798;10.022;2023-07-22T08:41:06;149538.88;;;21.40;57.02
5780;BME280;2916;49.798;10.022;2023-07-22T08:43:39;149541.38;;;21.41;56.41
5780;BME280;2916;49.798;10.022;2023-07-22T08:46:07;149551.38;;;21.45;57.26
5780;BME280;2916;49.798;10.022;2023-07-22T08:48:42;149546.41;;;21.43;57.64
5780;BME280;2916;49.798;10.022;2023-07-22T08:51:17;149413.88;;;20.89;58.00
5780;BME280;2916;49.798;10.022;2023-07-22T08:53:46;149518.84;;;21.32;57.91
5780;BME280;2916;49.798;10.022;2023-07-22T08:56:13;149527.66;;;21.36;56.78
5780;BME280;2916;49.798;10.022;2023-07-22T08:58:46;149766.44;;;22.33;55.73
5780;BME280;2916;49.798;10.022;2023-07-22T09:01:15;149905.25;;;22.90;54.72
5780;BME280;2916;49.798;10.022;2023-07-22T09:03:44;150064.19;;;23.55;53.90
5780;BME280;2916;49.798;10.022;2023-07-22T09:06:16;149897.72;;;22.87;53.43
5780;BME280;2916;49.798;10.022;2023-07-22T09:08:44;149984.09;;;23.22;54.20
5780;BME280;2916;49.798;10.022;2023-07-22T09:11:12;150006.63;;;23.31;53.60
5780;BME280;2916;49.798;10.022;2023-07-22T09:13:41;149878.97;;;22.79;55.11
5780;BME280;2916;49.798;10.022;2023-07-22T09:16:14;149944.06;;;23.06;54.43
5780;BME280;2916;49.798;10.022;2023-07-22T09:18:44;150015.41;;;23.35;53.18
5780;BME280;2916;49.798;10.022;2023-07-22T09:21:11;150016.63;;;23.35;51.27
5780;BME280;2916;49.798;10.022;2023-07-22T09:23:39;150250.69;;;24.31;51.18
5780;BME280;2916;49.798;10.022;2023-07-22T09:26:10;150089.19;;;23.65;52.52
5780;BME280;2916;49.798;10.022;2023-07-22T09:28:49;150198.16;;;24.09;52.05
5780;BME280;2916;49.798;10.022;2023-07-22T09:31:17;150239.44;;;24.26;51.41
5780;BME280;2916;49.798;10.022;2023-07-22T09:33:45;150111.78;;;23.74;51.57
5780;BME280;2916;49.798;10.022;2023-07-22T09:36:12;150241.94;;;24.27;50.05
5780;BME280;2916;49.798;10.022;2023-07-22T09:38:40;150537.53;;;25.48;47.45
5780;BME280;2916;49.798;10.022;2023-07-22T09:41:07;150405.97;;;24.94;46.92
5780;BME280;2916;49.798;10.022;2023-07-22T09:43:38;150571.34;;;25.61;46.70
5780;BME280;2916;49.798;10.022;2023-07-22T09:46:10;150596.41;;;25.71;47.35
5780;BME280;2916;49.798;10.022;2023-07-22T09:48:42;150562.56;;;25.58;48.46
5780;BME280;2916;49.798;10.022;2023-07-22T09:51:16;150377.19;;;24.82;47.43
5780;BME280;2916;49.798;10.022;2023-07-22T09:53:47;150497.47;;;25.31;45.89
5780;BME280;2916;49.798;10.022;2023-07-22T09:56:16;150637.78;;;25.88;44.69
5780;BME280;2916;49.798;10.022;2023-07-22T09:58:46;150730.53;;;26.26;44.56
5780;BME280;2916;49.798;10.022;2023-07-22T10:01:19;150656.59;;;25.96;45.36
5780;BME280;2916;49.798;10.022;2023-07-22T10:03:51;150170.59;;;23.98;48.30
5780;BME280;2916;49.798;10.022;2023-07-22T10:06:24;150241.94;;;24.27;47.37
5780;BME280;2916;49.798;10.022;2023-07-22T10:08:55;150309.56;;;24.55;47.03
5780;BME280;2916;49.798;10.022;2023-07-22T10:11:25;150502.47;;;25.33;46.83
5780;BME280;2916;49.798;10.022;2023-07-22T10:13:55;150546.31;;;25.51;46.98
5780;BME280;2916;49.798;10.022;2023-07-22T10:16:27;150414.75;;;24.97;47.54
5780;BME280;2916;49.798;10.022;2023-07-22T10:18:56;150449.88;;;25.12;46.35
5780;BME280;2916;49.798;10.022;2023-07-22T10:21:25;150615.25;;;25.79;45.85
5780;BME280;2916;49.798;10.022;2023-07-22T10:23:56;150532.50;;;25.45;45.47
5780;BME280;2916;49.798;10.022;2023-07-22T10:26:24;150531.25;;;25.45;46.07
5780;BME280;2916;49.798;10.022;2023-07-22T10:28:51;150755.56;;;26.36;43.98
5780;BME280;2916;49.798;10.022;2023-07-22T10:31:19;150660.31;;;25.98;44.76
5780;BME280;2916;49.798;10.022;2023-07-22T10:33:48;150769.38;;;26.42;45.39
5780;BME280;2916;49.798;10.022;2023-07-22T10:36:30;150585.16;;;25.67;44.12
5780;BME280;2916;49.798;10.022;2023-07-22T10:38:59;150828.31;;;26.66;43.62
5780;BME280;2916;49.798;10.022;2023-07-22T10:41:26;150778.19;;;26.46;42.15
5780;BME280;2916;49.798;10.022;2023-07-22T10:43:55;150819.53;;;26.62;42.31
5780;BME280;2916;49.798;10.022;2023-07-22T10:46:32;150651.59;;;25.94;42.94
5780;BME280;2916;49.798;10.022;2023-07-22T10:49:14;150504.94;;;25.34;44.39
5780;BME280;2916;49.798;10.022;2023-07-22T10:51:48;150641.56;;;25.90;44.17
5780;BME280;2916;49.798;10.022;2023-07-22T10:54:33;150552.56;;;25.54;45.23
5780;BME280;2916;49.798;10.022;2023-07-22T10:57:03;150561.31;;;25.57;44.79
5780;BME280;2916;49.798;10.022;2023-07-22T10:59:33;150630.25;;;25.85;45.57
5780;BME280;2916;49.798;10.022;2023-07-22T11:02:02;150779.44;;;26.46;43.58
5780;BME280;2916;49.798;10.022;2023-07-22T11:04:34;150717.97;;;26.21;43.64
5780;BME280;2916;49.798;10.022;2023-07-22T11:07:05;150810.75;;;26.59;44.31
5780;BME280;2916;49.798;10.022;2023-07-22T11:09:38;150680.41;;;26.06;42.03
5780;BME280;2916;49.798;10.022;2023-07-22T11:12:07;150586.41;;;25.67;41.74
5780;BME280;2916;49.798;10.022;2023-07-22T11:14:39;150760.59;;;26.38;42.37
5780;BME280;2916;49.798;10.022;2023-07-22T11:17:07;150887.22;;;26.90;41.25
5780;BME280;2916;49.798;10.022;2023-07-22T11:19:35;150956.22;;;27.18;39.55
5780;BME280;2916;49.798;10.022;2023-07-22T11:22:04;150795.75;;;26.53;39.71
5780;BME280;2916;49.798;10.022;2023-07-22T11:24:34;150535.00;;;25.46;41.38
5780;BME280;2916;49.798;10.022;2023-07-22T11:27:04;150685.41;;;26.08;40.80
5780;BME280;2916;49.798;10.022;2023-07-22T11:29:32;150928.59;;;27.07;38.85
5780;BME280;2916;49.798;10.022;2023-07-22T11:31:59;151049.00;;;27.56;38.38
5780;BME280;2916;49.798;10.022;2023-07-22T11:34:27;151086.63;;;27.71;39.58
5780;BME280;2916;49.798;10.022;2023-07-22T11:36:55;150983.81;;;27.29;39.04
5780;BME280;2916;49.798;10.022;2023-07-22T11:39:27;151145.63;;;27.95;38.43
5780;BME280;2916;49.798;10.022;2023-07-22T11:42:00;151064.03;;;27.62;38.44
5780;BME280;2916;49.798;10.022;2023-07-22T11:44:30;150991.34;;;27.32;39.00
5780;BME280;2916;49.798;10.022;2023-07-22T11:46:59;150870.91;;;26.83;38.73
5780;BME280;2916;49.798;10.022;2023-07-22T11:49:29;150937.41;;;27.10;39.54
5780;BME280;2916;49.798;10.022;2023-07-22T11:51:58;151017.63;;;27.43;40.31
5780;BME280;2916;49.798;10.022;2023-07-22T11:54:28;151092.94;;;27.74;38.85
5780;BME280;2916;49.798;10.022;2023-07-22T11:56:56;151175.72;;;28.07;37.33
5780;BME280;2916;49.798;10.022;2023-07-22T11:59:34;151366.47;;;28.85;37.99
5780;BME280;2916;49.798;10.022;2023-07-22T12:02:02;151087.88;;;27.72;39.16
5780;BME280;2916;49.798;10.022;2023-07-22T12:04:32;150882.19;;;26.88;38.75
5780;BME280;2916;49.798;10.022;2023-07-22T12:07:00;151131.81;;;27.89;38.83
5780;BME280;2916;49.798;10.022;2023-07-22T12:09:31;150921.06;;;27.04;39.15
5780;BME280;2916;49.798;10.022;2023-07-22T12:11:59;150943.69;;;27.13;38.77
5780;BME280;2916;49.798;10.022;2023-07-22T12:14:34;150760.59;;;26.38;39.86
5780;BME280;2916;49.798;10.022;2023-07-22T12:17:02;150820.78;;;26.63;39.62
5780;BME280;2916;49.798;10.022;2023-07-22T12:19:30;151131.81;;;27.89;39.35
5780;BME280;2916;49.798;10.022;2023-07-22T12:21:57;151234.66;;;28.31;37.81
5780;BME280;2916;49.798;10.022;2023-07-22T12:24:24;150965.00;;;27.22;37.53
5780;BME280;2916;49.798;10.022;2023-07-22T12:26:53;151023.91;;;27.46;36.84
5780;BME280;2916;49.798;10.022;2023-07-22T12:29:20;150888.47;;;26.90;37.92
5780;BME280;2916;49.798;10.022;2023-07-22T12:31:48;150720.50;;;26.22;38.76
5780;BME280;2916;49.798;10.022;2023-07-22T12:34:15;150730.53;;;26.26;39.26
5780;BME280;2916;49.798;10.022;2023-07-22T12:36:42;150672.88;;;26.03;39.30
5780;BME280;2916;49.798;10.022;2023-07-22T12:39:09;150610.16;;;25.77;39.61
5780;BME280;2916;49.798;10.022;2023-07-22T12:41:37;150580.13;;;25.65;40.45
5780;BME280;2916;49.798;10.022;2023-07-22T12:44:05;150720.50;;;26.22;40.04
5780;BME280;2916;49.798;10.022;2023-07-22T12:46:33;150789.47;;;26.50;39.61
5780;BME280;2916;49.798;10.022;2023-07-22T12:49:00;150726.75;;;26.25;39.79
5780;BME280;2916;49.798;10.022;2023-07-22T12:51:30;150773.13;;;26.43;39.18
5780;BME280;2916;49.798;10.022;2023-07-22T12:53:58;150725.50;;;26.24;39.74
5780;BME280;2916;49.798;10.022;2023-07-22T12:56:25;150859.63;;;26.79;39.70
5780;BME280;2916;49.798;10.022;2023-07-22T12:58:52;150906.03;;;26.98;39.63
5780;BME280;2916;49.798;10.022;2023-07-22T13:01:20;150813.25;;;26.60;39.85
5780;BME280;2916;49.798;10.022;2023-07-22T13:03:48;151031.44;;;27.49;38.18
5780;BME280;2916;49.798;10.022;2023-07-22T13:06:15;151109.25;;;27.80;37.73
5780;BME280;2916;49.798;10.022;2023-07-22T13:08:42;150991.34;;;27.32;37.85